الصفحة الرئيسية
METAR-TAF:

METAR-TAF

مطار :

مطار تيرانا الدولي

تيرانا, ألبانيا

دائرة عرض: 41-20N, خط طول: 019-47E, ارتفاع: 89 متر

مراقبة الطقس الحالي

تاريخ ووقت الإصدار 26 دقيقة قبل الساعة 18:20UTC
ريح 2 عقدةمن اتجاهات متغيرة
درجة الحرارة 5°درجة مئوية
الرطوبة 75%
ضغط 1012 hPa
الرؤية 10 كم أو أكثر
غيوم متفرقة على ارتفاع 3500 قدم
غيوم مفككة على ارتفاع 7000 قدم

METAR: LATI 011820Z VRB02KT 9999 SCT035 BKN070 05/01 Q1012 NOSIG

زمن: 20:46 (18:46 UTC)

توقعات

تاريخ ووقت الإصدار 1ساعة و 46 دقيقة قبل الساعة 17:00UTC
التوقعات صالحة من01 الساعة 18 UTC إلى 02 الساعة 18 UTC
ريح 3 عقدةمن اتجاهات متغيرة
الرؤية 10 كم أو أكثر
غيوم متفرقة على ارتفاع 7000 قدم
مؤقت
من 01 الساعة 21 UTC إلى 02 الساعة 06 UTC
الرؤية: 1500 متر
رقع من الضباب
نظرية الاحتمالات 30% :
مؤقت
من 02 الساعة 03 UTC إلى 02 الساعة 06 UTC
الرؤية: 0800 متر
ضباب
مؤقت
من 02 الساعة 11 UTC إلى 02 الساعة 17 UTC
ريح 10 عقدة من الشمال/الشمال الغربي

TAF: LATI 011700Z 0118/0218 VRB03KT 9999 SCT070 TEMPO 0121/0206 1500 BCFG NSC PROB30 TEMPO 0203/0206 0800 FG TEMPO 0211/0217 34010KT

أرصاد الطقس والتوقعات من أكثر من 4000 مطار (تقارير الطقس للمطار METAR والتنبؤ بالطقس بالمطارTAF).

المحطات المتاحة هي النقط الصفراء والحمراء على الخريطة.

حرك المؤشر فوق النقطة لمعرفة اسم المحطة.

ثم انقر لمعرفة أرصاد وتوقعات الطقس.

لتغيير الخارطة: اضغط على الأزرار الخضراء مع رمز الصليب الأسود للتكبير. على الزر الأخضر مع شرطة للتصغير، أو على الأسهم الخضراء للخرائط المجاورة.


METAR-TAF: